sensor_id;sensor_type;location;lat;lon;timestamp;pressure;altitude;pressure_sealevel;temperature;humidity
11856;BME280;5987;53.140;8.904;2022-08-21T00:00:17;101641.59;;;13.71;77.59
11856;BME280;5987;53.140;8.904;2022-08-21T00:03:22;101635.66;;;13.66;77.74
11856;BME280;5987;53.140;8.904;2022-08-21T00:06:27;101631.41;;;13.62;77.88
11856;BME280;5987;53.140;8.904;2022-08-21T00:09:30;101635.78;;;13.61;78.04
11856;BME280;5987;53.140;8.904;2022-08-21T00:12:34;101626.97;;;13.62;78.29
11856;BME280;5987;53.140;8.904;2022-08-21T00:15:40;101622.78;;;13.57;78.40
11856;BME280;5987;53.140;8.904;2022-08-21T00:18:44;101622.09;;;13.51;78.87
11856;BME280;5987;53.140;8.904;2022-08-21T00:21:49;101617.84;;;13.47;78.90
11856;BME280;5987;53.140;8.904;2022-08-21T00:24:53;101621.41;;;13.46;78.92
11856;BME280;5987;53.140;8.904;2022-08-21T00:27:57;101633.28;;;13.33;79.10
11856;BME280;5987;53.140;8.904;2022-08-21T00:31:01;101621.03;;;13.32;79.64
11856;BME280;5987;53.140;8.904;2022-08-21T00:34:06;101618.41;;;13.30;79.64
11856;BME280;5987;53.140;8.904;2022-08-21T00:37:12;101623.75;;;13.29;79.93
11856;BME280;5987;53.140;8.904;2022-08-21T00:40:20;101622.94;;;13.27;80.08
11856;BME280;5987;53.140;8.904;2022-08-21T00:43:29;101623.84;;;13.26;80.33
11856;BME280;5987;53.140;8.904;2022-08-21T00:46:34;101616.78;;;13.26;79.91
11856;BME280;5987;53.140;8.904;2022-08-21T00:49:39;101617.78;;;13.24;80.20
11856;BME280;5987;53.140;8.904;2022-08-21T00:52:45;101609.06;;;13.21;80.28
11856;BME280;5987;53.140;8.904;2022-08-21T00:55:52;101605.69;;;13.18;80.59
11856;BME280;5987;53.140;8.904;2022-08-21T00:58:58;101617.13;;;13.17;80.41
11856;BME280;5987;53.140;8.904;2022-08-21T01:02:06;101609.41;;;13.12;80.26
11856;BME280;5987;53.140;8.904;2022-08-21T01:05:11;101607.84;;;13.05;80.36
11856;BME280;5987;53.140;8.904;2022-08-21T01:08:18;101614.97;;;13.03;80.54
11856;BME280;5987;53.140;8.904;2022-08-21T01:11:24;101618.50;;;13.02;80.46
11856;BME280;5987;53.140;8.904;2022-08-21T01:14:29;101613.47;;;12.96;80.70
11856;BME280;5987;53.140;8.904;2022-08-21T01:17:34;101613.72;;;12.88;80.60
11856;BME280;5987;53.140;8.904;2022-08-21T01:20:42;101614.84;;;12.81;80.79
11856;BME280;5987;53.140;8.904;2022-08-21T01:23:52;101617.53;;;12.79;81.11
11856;BME280;5987;53.140;8.904;2022-08-21T01:26:57;101612.47;;;12.73;81.14
11856;BME280;5987;53.140;8.904;2022-08-21T01:30:09;101615.00;;;12.76;81.28
11856;BME280;5987;53.140;8.904;2022-08-21T01:33:13;101617.53;;;12.79;81.55
11856;BME280;5987;53.140;8.904;2022-08-21T01:36:17;101616.72;;;12.77;81.66
11856;BME280;5987;53.140;8.904;2022-08-21T01:39:22;101617.53;;;12.79;81.74
11856;BME280;5987;53.140;8.904;2022-08-21T01:42:26;101614.00;;;12.80;81.81
11856;BME280;5987;53.140;8.904;2022-08-21T01:45:30;101612.06;;;12.85;81.80
11856;BME280;5987;53.140;8.904;2022-08-21T01:48:35;101611.97;;;12.89;81.67
11856;BME280;5987;53.140;8.904;2022-08-21T01:51:38;101613.72;;;12.88;81.41
11856;BME280;5987;53.140;8.904;2022-08-21T01:54:44;101609.16;;;12.93;81.74
11856;BME280;5987;53.140;8.904;2022-08-21T01:57:58;101613.59;;;12.93;81.60
11856;BME280;5987;53.140;8.904;2022-08-21T02:01:04;101611.97;;;12.89;81.49
11856;BME280;5987;53.140;8.904;2022-08-21T02:04:09;101608.66;;;12.82;81.47
11856;BME280;5987;53.140;8.904;2022-08-21T02:07:14;101614.72;;;12.84;81.64
11856;BME280;5987;53.140;8.904;2022-08-21T02:10:24;101610.50;;;12.80;81.54
11856;BME280;5987;53.140;8.904;2022-08-21T02:13:28;101608.06;;;12.74;81.60
11856;BME280;5987;53.140;8.904;2022-08-21T02:16:32;101605.53;;;12.70;81.75
11856;BME280;5987;53.140;8.904;2022-08-21T02:19:38;101601.81;;;12.76;81.82
11856;BME280;5987;53.140;8.904;2022-08-21T02:22:42;101601.94;;;12.73;81.84
11856;BME280;5987;53.140;8.904;2022-08-21T02:25:47;101603.56;;;12.77;82.20
11856;BME280;5987;53.140;8.904;2022-08-21T02:28:51;101594.78;;;12.77;81.89
11856;BME280;5987;53.140;8.904;2022-08-21T02:31:55;101591.22;;;12.78;82.14
11856;BME280;5987;53.140;8.904;2022-08-21T02:34:59;101588.66;;;12.76;82.02
11856;BME280;5987;53.140;8.904;2022-08-21T02:38:07;101587.84;;;12.74;81.59
11856;BME280;5987;53.140;8.904;2022-08-21T02:41:19;101583.63;;;12.68;81.92
11856;BME280;5987;53.140;8.904;2022-08-21T02:44:24;101582.94;;;12.63;81.95
11856;BME280;5987;53.140;8.904;2022-08-21T02:47:35;101569.00;;;12.60;82.06
11856;BME280;5987;53.140;8.904;2022-08-21T02:50:42;101579.53;;;12.60;82.34
11856;BME280;5987;53.140;8.904;2022-08-21T02:53:47;101573.47;;;12.58;82.30
11856;BME280;5987;53.140;8.904;2022-08-21T02:56:52;101567.38;;;12.56;82.27
11856;BME280;5987;53.140;8.904;2022-08-21T02:59:56;101574.44;;;12.55;82.39
11856;BME280;5987;53.140;8.904;2022-08-21T03:03:00;101564.78;;;12.54;82.49
11856;BME280;5987;53.140;8.904;2022-08-21T03:06:05;101567.53;;;12.51;82.59
11856;BME280;5987;53.140;8.904;2022-08-21T03:09:08;101560.59;;;12.48;82.63
11856;BME280;5987;53.140;8.904;2022-08-21T03:12:13;101559.78;;;12.46;82.85
11856;BME280;5987;53.140;8.904;2022-08-21T03:15:20;101564.84;;;12.52;82.89
11856;BME280;5987;53.140;8.904;2022-08-21T03:18:25;101562.97;;;12.56;82.92
11856;BME280;5987;53.140;8.904;2022-08-21T03:21:28;101566.41;;;12.58;83.13
11856;BME280;5987;53.140;8.904;2022-08-21T03:24:32;101573.41;;;12.59;83.27
11856;BME280;5987;53.140;8.904;2022-08-21T03:27:37;101565.66;;;12.55;82.93
11856;BME280;5987;53.140;8.904;2022-08-21T03:30:47;101562.03;;;12.57;82.92
11856;BME280;5987;53.140;8.904;2022-08-21T03:33:51;101561.09;;;12.60;83.03
11856;BME280;5987;53.140;8.904;2022-08-21T03:36:57;101550.41;;;12.64;83.21
11856;BME280;5987;53.140;8.904;2022-08-21T03:40:01;101550.25;;;12.69;83.30
11856;BME280;5987;53.140;8.904;2022-08-21T03:43:06;101547.63;;;12.69;83.47
11856;BME280;5987;53.140;8.904;2022-08-21T03:46:11;101549.47;;;12.65;82.89
11856;BME280;5987;53.140;8.904;2022-08-21T03:49:16;101546.97;;;12.62;83.03
11856;BME280;5987;53.140;8.904;2022-08-21T03:52:19;101544.44;;;12.59;82.98
11856;BME280;5987;53.140;8.904;2022-08-21T03:55:25;101541.09;;;12.54;82.81
11856;BME280;5987;53.140;8.904;2022-08-21T03:58:30;101543.72;;;12.54;82.61
11856;BME280;5987;53.140;8.904;2022-08-21T04:01:34;101541.25;;;12.49;82.81
11856;BME280;5987;53.140;8.904;2022-08-21T04:04:38;101551.78;;;12.49;83.16
11856;BME280;5987;53.140;8.904;2022-08-21T04:07:42;101551.78;;;12.49;83.63
11856;BME280;5987;53.140;8.904;2022-08-21T04:10:50;101558.16;;;12.42;83.43
11856;BME280;5987;53.140;8.904;2022-08-21T04:13:56;101567.88;;;12.40;83.77
11856;BME280;5987;53.140;8.904;2022-08-21T04:16:59;101567.69;;;12.46;84.05
11856;BME280;5987;53.140;8.904;2022-08-21T04:20:04;101576.66;;;12.41;84.23
11856;BME280;5987;53.140;8.904;2022-08-21T04:23:08;101575.44;;;12.51;84.42
11856;BME280;5987;53.140;8.904;2022-08-21T04:26:12;101569.16;;;12.55;84.42
11856;BME280;5987;53.140;8.904;2022-08-21T04:29:17;101567.28;;;12.59;84.05
11856;BME280;5987;53.140;8.904;2022-08-21T04:32:25;101565.34;;;12.64;84.27
11856;BME280;5987;53.140;8.904;2022-08-21T04:35:29;101568.88;;;12.63;83.90
11856;BME280;5987;53.140;8.904;2022-08-21T04:38:33;101560.94;;;12.64;83.96
11856;BME280;5987;53.140;8.904;2022-08-21T04:41:39;101562.53;;;12.70;83.78
11856;BME280;5987;53.140;8.904;2022-08-21T04:44:45;101561.50;;;12.74;83.96
11856;BME280;5987;53.140;8.904;2022-08-21T04:47:52;101562.25;;;12.78;83.83
11856;BME280;5987;53.140;8.904;2022-08-21T04:51:02;101564.81;;;12.79;83.49
11856;BME280;5987;53.140;8.904;2022-08-21T04:54:14;101564.72;;;12.82;83.40
11856;BME280;5987;53.140;8.904;2022-08-21T04:57:20;101569.25;;;12.79;83.42
11856;BME280;5987;53.140;8.904;2022-08-21T05:00:42;101571.66;;;12.85;83.59
11856;BME280;5987;53.140;8.904;2022-08-21T05:03:49;101582.13;;;12.86;83.30
11856;BME280;5987;53.140;8.904;2022-08-21T05:06:58;101580.53;;;12.82;83.00
11856;BME280;5987;53.140;8.904;2022-08-21T05:10:04;101586.69;;;12.83;83.00
11856;BME280;5987;53.140;8.904;2022-08-21T05:13:10;101586.41;;;12.91;82.87
11856;BME280;5987;53.140;8.904;2022-08-21T05:16:16;101578.97;;;13.02;82.71
11856;BME280;5987;53.140;8.904;2022-08-21T05:19:39;101584.25;;;13.02;82.44
11856;BME280;5987;53.140;8.904;2022-08-21T05:22:43;101574.53;;;13.04;82.17
11856;BME280;5987;53.140;8.904;2022-08-21T05:25:46;101582.03;;;13.15;81.70
11856;BME280;5987;53.140;8.904;2022-08-21T05:28:50;101586.88;;;13.27;81.80
11856;BME280;5987;53.140;8.904;2022-08-21T05:31:55;101587.97;;;13.21;81.31
11856;BME280;5987;53.140;8.904;2022-08-21T05:34:59;101582.91;;;13.41;81.12
11856;BME280;5987;53.140;8.904;2022-08-21T05:38:04;101581.59;;;13.52;81.33
11856;BME280;5987;53.140;8.904;2022-08-21T05:41:18;101587.28;;;13.65;80.98
11856;BME280;5987;53.140;8.904;2022-08-21T05:44:21;101588.81;;;13.71;80.42
11856;BME280;5987;53.140;8.904;2022-08-21T05:47:28;101591.63;;;13.90;80.79
11856;BME280;5987;53.140;8.904;2022-08-21T05:50:32;101588.16;;;14.34;80.21
11856;BME280;5987;53.140;8.904;2022-08-21T05:53:39;101594.06;;;14.61;79.36
11856;BME280;5987;53.140;8.904;2022-08-21T05:56:44;101591.00;;;14.72;78.71
11856;BME280;5987;53.140;8.904;2022-08-21T05:59:48;101596.31;;;15.13;78.12
11856;BME280;5987;53.140;8.904;2022-08-21T06:02:54;101586.31;;;15.59;76.80
11856;BME280;5987;53.140;8.904;2022-08-21T06:05:58;101579.13;;;15.82;75.09
11856;BME280;5987;53.140;8.904;2022-08-21T06:09:02;101581.88;;;16.17;74.18
11856;BME280;5987;53.140;8.904;2022-08-21T06:12:09;101581.91;;;16.35;72.86
11856;BME280;5987;53.140;8.904;2022-08-21T06:15:13;101580.69;;;16.59;72.24
11856;BME280;5987;53.140;8.904;2022-08-21T06:18:19;101571.50;;;16.67;70.47
11856;BME280;5987;53.140;8.904;2022-08-21T06:21:25;101568.53;;;16.55;70.99
11856;BME280;5987;53.140;8.904;2022-08-21T06:24:29;101575.84;;;16.68;71.62
11856;BME280;5987;53.140;8.904;2022-08-21T06:27:33;101580.88;;;16.91;71.12
11856;BME280;5987;53.140;8.904;2022-08-21T06:30:38;101580.72;;;16.94;71.04
11856;BME280;5987;53.140;8.904;2022-08-21T06:33:44;101579.16;;;16.90;70.73
11856;BME280;5987;53.140;8.904;2022-08-21T06:36:48;101576.00;;;17.17;70.83
11856;BME280;5987;53.140;8.904;2022-08-21T06:39:51;101570.38;;;17.23;69.60
11856;BME280;5987;53.140;8.904;2022-08-21T06:42:56;101577.06;;;17.30;70.47
11856;BME280;5987;53.140;8.904;2022-08-21T06:46:02;101580.47;;;17.50;69.77
11856;BME280;5987;53.140;8.904;2022-08-21T06:49:07;101576.78;;;17.69;69.01
11856;BME280;5987;53.140;8.904;2022-08-21T06:52:22;101573.22;;;17.70;67.96
11856;BME280;5987;53.140;8.904;2022-08-21T06:55:26;101574.84;;;17.72;67.45
11856;BME280;5987;53.140;8.904;2022-08-21T06:58:31;101565.53;;;17.97;67.33
11856;BME280;5987;53.140;8.904;2022-08-21T07:01:34;101567.75;;;18.05;67.10
11856;BME280;5987;53.140;8.904;2022-08-21T07:04:40;101575.22;;;17.98;67.22
11856;BME280;5987;53.140;8.904;2022-08-21T07:07:44;101573.41;;;18.14;67.01
11856;BME280;5987;53.140;8.904;2022-08-21T07:10:49;101575.28;;;18.28;66.17
11856;BME280;5987;53.140;8.904;2022-08-21T07:13:53;101568.91;;;18.31;65.75
11856;BME280;5987;53.140;8.904;2022-08-21T07:16:59;101570.91;;;18.58;65.83
11856;BME280;5987;53.140;8.904;2022-08-21T07:20:06;101573.09;;;18.51;65.83
11856;BME280;5987;53.140;8.904;2022-08-21T07:23:15;101568.94;;;18.61;66.23
11856;BME280;5987;53.140;8.904;2022-08-21T07:26:23;101563.28;;;18.82;65.81
11856;BME280;5987;53.140;8.904;2022-08-21T07:29:28;101561.56;;;18.81;66.23
11856;BME280;5987;53.140;8.904;2022-08-21T07:32:31;101562.00;;;19.03;65.09
11856;BME280;5987;53.140;8.904;2022-08-21T07:35:38;101560.28;;;19.46;64.52
11856;BME280;5987;53.140;8.904;2022-08-21T07:38:41;101559.00;;;19.24;64.27
11856;BME280;5987;53.140;8.904;2022-08-21T07:41:45;101555.53;;;19.65;63.71
11856;BME280;5987;53.140;8.904;2022-08-21T07:44:49;101553.63;;;19.82;62.60
11856;BME280;5987;53.140;8.904;2022-08-21T07:47:56;101551.53;;;20.00;61.74
11856;BME280;5987;53.140;8.904;2022-08-21T07:51:05;101552.63;;;19.97;62.13
11856;BME280;5987;53.140;8.904;2022-08-21T07:54:10;101552.22;;;20.03;60.52
11856;BME280;5987;53.140;8.904;2022-08-21T07:57:18;101557.97;;;20.37;61.81
11856;BME280;5987;53.140;8.904;2022-08-21T08:00:25;101556.53;;;20.19;60.53
11856;BME280;5987;53.140;8.904;2022-08-21T08:03:29;101551.75;;;19.97;60.52
11856;BME280;5987;53.140;8.904;2022-08-21T08:06:34;101553.00;;;20.59;59.74
11856;BME280;5987;53.140;8.904;2022-08-21T08:09:38;101554.06;;;20.56;59.18
11856;BME280;5987;53.140;8.904;2022-08-21T08:12:43;101554.28;;;20.66;58.79
11856;BME280;5987;53.140;8.904;2022-08-21T08:15:47;101552.66;;;20.78;58.37
11856;BME280;5987;53.140;8.904;2022-08-21T08:18:51;101555.88;;;20.96;57.93
11856;BME280;5987;53.140;8.904;2022-08-21T08:21:58;101556.28;;;20.77;57.06
11856;BME280;5987;53.140;8.904;2022-08-21T08:25:03;101557.44;;;20.85;56.27
11856;BME280;5987;53.140;8.904;2022-08-21T08:28:11;101553.94;;;21.11;55.50
11856;BME280;5987;53.140;8.904;2022-08-21T08:31:18;101555.22;;;20.79;54.99
11856;BME280;5987;53.140;8.904;2022-08-21T08:34:22;101552.34;;;21.21;54.17
11856;BME280;5987;53.140;8.904;2022-08-21T08:37:28;101555.44;;;21.15;53.45
11856;BME280;5987;53.140;8.904;2022-08-21T08:40:43;101552.03;;;21.00;53.04
11856;BME280;5987;53.140;8.904;2022-08-21T08:43:52;101553.22;;;20.96;53.22
11856;BME280;5987;53.140;8.904;2022-08-21T08:46:57;101551.69;;;21.30;53.69
11856;BME280;5987;53.140;8.904;2022-08-21T08:50:06;101546.78;;;21.24;52.64
11856;BME280;5987;53.140;8.904;2022-08-21T08:53:18;101551.84;;;21.79;52.59
11856;BME280;5987;53.140;8.904;2022-08-21T08:56:31;101537.81;;;21.99;51.41
11856;BME280;5987;53.140;8.904;2022-08-21T08:59:42;101557.34;;;22.13;51.21
11856;BME280;5987;53.140;8.904;2022-08-21T09:02:47;101552.50;;;21.69;49.60
11856;BME280;5987;53.140;8.904;2022-08-21T09:06:00;101539.59;;;21.87;48.87
11856;BME280;5987;53.140;8.904;2022-08-21T09:09:24;101540.28;;;22.02;49.11
11856;BME280;5987;53.140;8.904;2022-08-21T09:12:42;101537.00;;;22.58;48.01
11856;BME280;5987;53.140;8.904;2022-08-21T09:16:13;101542.88;;;22.75;48.24
11856;BME280;5987;53.140;8.904;2022-08-21T09:19:39;101532.75;;;22.56;47.51
11856;BME280;5987;53.140;8.904;2022-08-21T09:23:10;101525.44;;;22.22;47.85
11856;BME280;5987;53.140;8.904;2022-08-21T09:26:23;101531.84;;;22.20;48.70
11856;BME280;5987;53.140;8.904;2022-08-21T09:29:31;101527.16;;;22.59;48.54
11856;BME280;5987;53.140;8.904;2022-08-21T09:32:39;101534.31;;;22.58;48.81
11856;BME280;5987;53.140;8.904;2022-08-21T09:35:53;101526.84;;;22.39;48.26
11856;BME280;5987;53.140;8.904;2022-08-21T09:39:00;101520.34;;;22.66;48.53
11856;BME280;5987;53.140;8.904;2022-08-21T09:42:09;101522.00;;;23.14;48.19
11856;BME280;5987;53.140;8.904;2022-08-21T09:45:17;101511.53;;;22.53;48.69
11856;BME280;5987;53.140;8.904;2022-08-21T09:48:24;101526.22;;;21.37;50.68
11856;BME280;5987;53.140;8.904;2022-08-21T09:51:36;101519.44;;;21.70;52.10
11856;BME280;5987;53.140;8.904;2022-08-21T09:54:40;101523.78;;;21.34;52.08
11856;BME280;5987;53.140;8.904;2022-08-21T09:57:47;101515.47;;;21.26;52.87
11856;BME280;5987;53.140;8.904;2022-08-21T10:00:58;101514.94;;;21.08;52.45
11856;BME280;5987;53.140;8.904;2022-08-21T10:04:04;101514.13;;;20.95;52.14
11856;BME280;5987;53.140;8.904;2022-08-21T10:07:09;101501.88;;;21.55;52.04
11856;BME280;5987;53.140;8.904;2022-08-21T10:10:18;101508.88;;;21.93;51.16
11856;BME280;5987;53.140;8.904;2022-08-21T10:13:37;101511.19;;;22.22;50.00
11856;BME280;5987;53.140;8.904;2022-08-21T10:16:55;101509.81;;;22.16;51.27
11856;BME280;5987;53.140;8.904;2022-08-21T10:20:09;101504.47;;;22.40;50.77
11856;BME280;5987;53.140;8.904;2022-08-21T10:23:40;101496.53;;;22.74;49.18
11856;BME280;5987;53.140;8.904;2022-08-21T10:27:00;101507.94;;;22.65;49.27
11856;BME280;5987;53.140;8.904;2022-08-21T10:30:13;101506.97;;;22.77;49.17
11856;BME280;5987;53.140;8.904;2022-08-21T10:33:30;101506.81;;;22.56;49.20
11856;BME280;5987;53.140;8.904;2022-08-21T10:36:58;101508.22;;;22.85;48.53
11856;BME280;5987;53.140;8.904;2022-08-21T10:40:22;101505.59;;;22.49;48.08
11856;BME280;5987;53.140;8.904;2022-08-21T10:43:38;101502.25;;;22.34;48.73
11856;BME280;5987;53.140;8.904;2022-08-21T10:46:53;101496.47;;;22.52;47.64
11856;BME280;5987;53.140;8.904;2022-08-21T10:50:10;101501.00;;;22.74;47.26
11856;BME280;5987;53.140;8.904;2022-08-21T10:53:40;101495.59;;;23.21;46.23
11856;BME280;5987;53.140;8.904;2022-08-21T10:56:51;101493.41;;;23.70;45.23
11856;BME280;5987;53.140;8.904;2022-08-21T11:00:05;101493.50;;;23.91;44.75
11856;BME280;5987;53.140;8.904;2022-08-21T11:03:17;101501.19;;;23.40;43.50
11856;BME280;5987;53.140;8.904;2022-08-21T11:06:28;101485.81;;;23.42;43.48
11856;BME280;5987;53.140;8.904;2022-08-21T11:09:40;101492.13;;;23.41;43.29
11856;BME280;5987;53.140;8.904;2022-08-21T11:12:53;101488.66;;;23.73;43.64
11856;BME280;5987;53.140;8.904;2022-08-21T11:16:05;101487.28;;;23.35;43.31
11856;BME280;5987;53.140;8.904;2022-08-21T11:19:19;101486.06;;;23.05;44.45
11856;BME280;5987;53.140;8.904;2022-08-21T11:22:33;101494.56;;;22.88;46.00
11856;BME280;5987;53.140;8.904;2022-08-21T11:25:45;101494.78;;;22.51;46.77
11856;BME280;5987;53.140;8.904;2022-08-21T11:28:58;101488.06;;;22.45;46.25
11856;BME280;5987;53.140;8.904;2022-08-21T11:35:51;101492.63;;;22.78;45.64
11856;BME280;5987;53.140;8.904;2022-08-21T11:39:06;101486.53;;;22.88;45.70
11856;BME280;5987;53.140;8.904;2022-08-21T11:42:28;101480.94;;;22.91;43.32
11856;BME280;5987;53.140;8.904;2022-08-21T11:45:45;101473.03;;;23.46;44.65
11856;BME280;5987;53.140;8.904;2022-08-21T11:49:05;101490.34;;;23.42;45.62
11856;BME280;5987;53.140;8.904;2022-08-21T11:52:18;101486.25;;;22.57;47.29
11856;BME280;5987;53.140;8.904;2022-08-21T11:55:31;101499.03;;;22.29;48.29
11856;BME280;5987;53.140;8.904;2022-08-21T11:58:39;101497.44;;;22.51;47.57
11856;BME280;5987;53.140;8.904;2022-08-21T12:01:46;101495.63;;;22.27;47.80
11856;BME280;5987;53.140;8.904;2022-08-21T12:04:58;101492.88;;;22.04;47.50
11856;BME280;5987;53.140;8.904;2022-08-21T12:08:26;101489.44;;;22.26;47.72
11856;BME280;5987;53.140;8.904;2022-08-21T12:11:31;101487.03;;;22.70;47.35
11856;BME280;5987;53.140;8.904;2022-08-21T12:14:39;101482.19;;;23.09;45.88
11856;BME280;5987;53.140;8.904;2022-08-21T12:17:58;101489.69;;;22.59;44.98
11856;BME280;5987;53.140;8.904;2022-08-21T12:21:17;101495.31;;;22.78;45.90
11856;BME280;5987;53.140;8.904;2022-08-21T12:24:36;101480.13;;;23.13;44.16
11856;BME280;5987;53.140;8.904;2022-08-21T12:27:47;101479.75;;;23.18;44.07
11856;BME280;5987;53.140;8.904;2022-08-21T12:30:53;101478.28;;;23.25;42.72
11856;BME280;5987;53.140;8.904;2022-08-21T12:34:02;101482.50;;;23.39;43.02
11856;BME280;5987;53.140;8.904;2022-08-21T12:37:20;101476.69;;;23.89;41.82
11856;BME280;5987;53.140;8.904;2022-08-21T12:40:36;101480.78;;;23.60;41.20
11856;BME280;5987;53.140;8.904;2022-08-21T12:43:43;101466.97;;;23.21;41.62
11856;BME280;5987;53.140;8.904;2022-08-21T12:46:55;101469.25;;;23.26;42.48
11856;BME280;5987;53.140;8.904;2022-08-21T12:50:06;101474.72;;;23.79;42.53
11856;BME280;5987;53.140;8.904;2022-08-21T12:53:22;101471.81;;;23.94;42.69
11856;BME280;5987;53.140;8.904;2022-08-21T12:56:35;101470.06;;;23.60;42.09
11856;BME280;5987;53.140;8.904;2022-08-21T12:59:41;101471.16;;;23.58;43.04
11856;BME280;5987;53.140;8.904;2022-08-21T13:02:49;101473.75;;;23.92;42.68
11856;BME280;5987;53.140;8.904;2022-08-21T13:05:54;101462.41;;;23.44;42.26
11856;BME280;5987;53.140;8.904;2022-08-21T13:09:06;101483.00;;;23.44;42.58
11856;BME280;5987;53.140;8.904;2022-08-21T13:12:13;101462.06;;;23.81;42.18
11856;BME280;5987;53.140;8.904;2022-08-21T13:15:31;101457.88;;;24.42;41.40
11856;BME280;5987;53.140;8.904;2022-08-21T13:18:53;101457.59;;;24.45;39.84
11856;BME280;5987;53.140;8.904;2022-08-21T13:21:59;101455.59;;;24.17;40.39
11856;BME280;5987;53.140;8.904;2022-08-21T13:25:28;101455.34;;;24.20;40.54
11856;BME280;5987;53.140;8.904;2022-08-21T13:28:35;101451.59;;;23.78;41.73
11856;BME280;5987;53.140;8.904;2022-08-21T13:31:46;101451.13;;;24.06;41.93
11856;BME280;5987;53.140;8.904;2022-08-21T13:34:50;101458.34;;;24.05;41.42
11856;BME280;5987;53.140;8.904;2022-08-21T13:37:56;101455.44;;;23.97;41.50
11856;BME280;5987;53.140;8.904;2022-08-21T13:41:06;101451.19;;;23.94;41.67
11856;BME280;5987;53.140;8.904;2022-08-21T13:44:20;101444.13;;;23.93;40.58
11856;BME280;5987;53.140;8.904;2022-08-21T13:47:28;101442.50;;;24.02;40.68
11856;BME280;5987;53.140;8.904;2022-08-21T13:50:35;101445.19;;;24.02;40.60
11856;BME280;5987;53.140;8.904;2022-08-21T13:53:49;101447.66;;;23.94;40.63
11856;BME280;5987;53.140;8.904;2022-08-21T13:56:55;101446.81;;;23.82;41.39
11856;BME280;5987;53.140;8.904;2022-08-21T14:00:20;101444.66;;;24.08;41.93
11856;BME280;5987;53.140;8.904;2022-08-21T14:03:34;101452.72;;;24.08;41.20
11856;BME280;5987;53.140;8.904;2022-08-21T14:06:40;101445.97;;;24.14;41.89
11856;BME280;5987;53.140;8.904;2022-08-21T14:09:45;101437.84;;;24.04;41.53
11856;BME280;5987;53.140;8.904;2022-08-21T14:12:55;101445.38;;;24.10;42.15
11856;BME280;5987;53.140;8.904;2022-08-21T14:16:12;101443.22;;;24.25;41.67
11856;BME280;5987;53.140;8.904;2022-08-21T14:19:22;101443.00;;;23.96;41.35
11856;BME280;5987;53.140;8.904;2022-08-21T14:22:38;101431.44;;;23.63;41.85
11856;BME280;5987;53.140;8.904;2022-08-21T14:25:44;101447.34;;;23.76;42.78
11856;BME280;5987;53.140;8.904;2022-08-21T14:28:49;101449.03;;;23.88;42.55
11856;BME280;5987;53.140;8.904;2022-08-21T14:31:58;101441.59;;;23.80;41.28
11856;BME280;5987;53.140;8.904;2022-08-21T14:35:02;101454.28;;;23.90;41.65
11856;BME280;5987;53.140;8.904;2022-08-21T14:38:13;101446.09;;;24.12;41.30
11856;BME280;5987;53.140;8.904;2022-08-21T14:41:24;101444.00;;;24.37;40.74
11856;BME280;5987;53.140;8.904;2022-08-21T14:44:30;101450.34;;;24.78;41.33
11856;BME280;5987;53.140;8.904;2022-08-21T14:47:35;101453.41;;;24.31;39.77
11856;BME280;5987;53.140;8.904;2022-08-21T14:50:40;101453.19;;;23.70;40.25
11856;BME280;5987;53.140;8.904;2022-08-21T14:53:45;101455.25;;;23.77;41.65
11856;BME280;5987;53.140;8.904;2022-08-21T14:56:48;101451.91;;;24.18;41.04
11856;BME280;5987;53.140;8.904;2022-08-21T14:59:55;101447.41;;;23.97;40.21
11856;BME280;5987;53.140;8.904;2022-08-21T15:03:04;101452.78;;;23.86;40.01
11856;BME280;5987;53.140;8.904;2022-08-21T15:06:09;101456.00;;;23.68;40.72
11856;BME280;5987;53.140;8.904;2022-08-21T15:09:13;101446.91;;;23.59;41.04
11856;BME280;5987;53.140;8.904;2022-08-21T15:12:16;101450.28;;;23.18;41.92
11856;BME280;5987;53.140;8.904;2022-08-21T15:15:43;101454.50;;;23.09;42.84
11856;BME280;5987;53.140;8.904;2022-08-21T15:18:48;101452.72;;;22.98;43.41
11856;BME280;5987;53.140;8.904;2022-08-21T15:21:52;101451.84;;;23.09;44.14
11856;BME280;5987;53.140;8.904;2022-08-21T15:24:56;101451.53;;;23.14;43.35
11856;BME280;5987;53.140;8.904;2022-08-21T15:28:01;101444.16;;;23.38;42.59
11856;BME280;5987;53.140;8.904;2022-08-21T15:31:06;101446.81;;;23.50;42.46
11856;BME280;5987;53.140;8.904;2022-08-21T15:34:11;101448.41;;;23.41;41.73
11856;BME280;5987;53.140;8.904;2022-08-21T15:37:15;101452.34;;;23.69;41.49
11856;BME280;5987;53.140;8.904;2022-08-21T15:40:19;101445.22;;;23.91;41.39
11856;BME280;5987;53.140;8.904;2022-08-21T15:43:25;101448.69;;;23.70;41.54
11856;BME280;5987;53.140;8.904;2022-08-21T15:46:32;101449.53;;;23.71;41.58
11856;BME280;5987;53.140;8.904;2022-08-21T15:49:37;101440.47;;;23.83;41.79
11856;BME280;5987;53.140;8.904;2022-08-21T15:52:41;101443.69;;;24.09;41.18
11856;BME280;5987;53.140;8.904;2022-08-21T15:55:44;101438.06;;;24.12;40.68
11856;BME280;5987;53.140;8.904;2022-08-21T15:58:49;101441.78;;;24.21;40.78
11856;BME280;5987;53.140;8.904;2022-08-21T16:01:53;101444.41;;;24.32;40.95
11856;BME280;5987;53.140;8.904;2022-08-21T16:04:59;101445.06;;;24.25;40.40
11856;BME280;5987;53.140;8.904;2022-08-21T16:08:03;101435.19;;;24.25;40.40
11856;BME280;5987;53.140;8.904;2022-08-21T16:11:07;101441.50;;;24.45;40.14
11856;BME280;5987;53.140;8.904;2022-08-21T16:14:11;101435.78;;;24.29;40.36
11856;BME280;5987;53.140;8.904;2022-08-21T16:17:16;101439.94;;;24.22;40.50
11856;BME280;5987;53.140;8.904;2022-08-21T16:20:24;101440.06;;;24.20;40.72
11856;BME280;5987;53.140;8.904;2022-08-21T16:23:29;101438.91;;;24.13;40.89
11856;BME280;5987;53.140;8.904;2022-08-21T16:26:32;101435.03;;;24.27;40.47
11856;BME280;5987;53.140;8.904;2022-08-21T16:29:37;101438.78;;;23.82;41.17
11856;BME280;5987;53.140;8.904;2022-08-21T16:32:41;101439.16;;;23.77;41.54
11856;BME280;5987;53.140;8.904;2022-08-21T16:35:46;101443.06;;;23.73;41.58
11856;BME280;5987;53.140;8.904;2022-08-21T16:38:51;101441.28;;;23.62;41.84